Time;durP1;ratioP1;P1;durP2;ratioP2;P2;SDS_P1;SDS_P2;PMS_P1;PMS_P2;Temp;Humidity;BMP_temperature;BMP_pressure;BME280_temperature;BME280_humidity;BME280_pressure;Samples;Min_cycle;Max_cycle;Signal;HPM_P1;HPM_P2
2023/08/22 00:01:44;;;;;;;8.43;5.65;;;;;;;22.40;100.00;96309.13;4976551;28;24468;-76
2023/08/22 00:04:11;;;;;;;6.67;5.27;;;;;;;22.30;100.00;96307.59;4991988;28;24420;-76
2023/08/22 00:06:38;;;;;;;8.93;5.33;;;;;;;22.01;100.00;96307.84;4974746;28;24546;-77
2023/08/22 00:09:04;;;;;;;7.18;5.40;;;;;;;21.89;100.00;96305.47;4972367;28;25089;-77
2023/08/22 00:11:31;;;;;;;6.70;5.20;;;;;;;21.88;100.00;96305.63;4983447;28;24445;-77
2023/08/22 00:13:58;;;;;;;6.55;5.20;;;;;;;21.96;100.00;96308.31;4977012;28;24500;-76
2023/08/22 00:16:25;;;;;;;9.38;5.30;;;;;;;21.92;100.00;96299.06;4972187;28;25011;-76
2023/08/22 00:18:51;;;;;;;10.40;5.07;;;;;;;21.78;100.00;96303.06;4972062;28;24461;-76
2023/08/22 00:21:19;;;;;;;5.95;4.97;;;;;;;21.75;100.00;96301.56;4985083;28;24452;-76
2023/08/22 00:23:45;;;;;;;7.88;5.70;;;;;;;21.79;100.00;96310.00;4974085;28;24944;-76
2023/08/22 00:26:12;;;;;;;7.90;5.50;;;;;;;21.77;100.00;96301.41;4972286;28;24828;-76
2023/08/22 00:28:38;;;;;;;8.23;5.53;;;;;;;21.63;100.00;96297.50;4972293;28;24417;-76
2023/08/22 00:31:05;;;;;;;6.43;5.60;;;;;;;21.60;100.00;96299.63;4971930;28;24448;-77
2023/08/22 00:33:31;;;;;;;11.00;5.43;;;;;;;21.58;100.00;96297.16;4972029;28;24446;-76
2023/08/22 00:35:58;;;;;;;9.23;5.93;;;;;;;21.55;100.00;96300.09;4971745;28;24445;-77
2023/08/22 00:38:26;;;;;;;6.93;5.60;;;;;;;21.52;100.00;96295.09;4971937;28;24417;-76
2023/08/22 00:40:52;;;;;;;8.68;5.97;;;;;;;21.62;100.00;96295.88;4971495;28;24485;-77
2023/08/22 00:43:19;;;;;;;7.75;6.18;;;;;;;21.75;100.00;96287.56;4972084;28;24426;-77
2023/08/22 00:45:46;;;;;;;7.47;5.35;;;;;;;21.43;100.00;96294.22;4971890;28;24434;-76
2023/08/22 00:48:12;;;;;;;8.35;5.28;;;;;;;21.27;100.00;96279.03;4971808;28;24445;-76
2023/08/22 00:50:39;;;;;;;7.18;5.30;;;;;;;21.31;100.00;96289.28;4971908;28;24456;-76
2023/08/22 00:53:05;;;;;;;13.52;5.82;;;;;;;21.48;100.00;96278.75;4971767;28;24444;-77
2023/08/22 00:55:33;;;;;;;8.85;5.43;;;;;;;21.41;100.00;96280.34;4971854;28;24437;-77
2023/08/22 00:58:00;;;;;;;7.83;5.27;;;;;;;21.25;100.00;96280.19;4971785;28;24445;-77
2023/08/22 01:00:27;;;;;;;6.73;4.90;;;;;;;21.20;100.00;96277.97;4971768;28;24462;-77
2023/08/22 01:02:53;;;;;;;5.20;4.68;;;;;;;21.19;100.00;96276.31;4971486;28;25004;-76
2023/08/22 01:05:20;;;;;;;5.75;4.93;;;;;;;21.25;100.00;96273.09;4971966;28;24433;-77
2023/08/22 01:07:53;;;;;;;6.70;5.10;;;;;;;21.20;100.00;96274.50;4972077;28;24432;-76
2023/08/22 01:10:25;;;;;;;6.82;5.30;;;;;;;21.11;100.00;96264.88;4971931;28;24430;-76
2023/08/22 01:12:59;;;;;;;9.27;5.40;;;;;;;21.16;100.00;96265.25;4971698;28;24429;-76
2023/08/22 01:15:28;;;;;;;5.65;5.05;;;;;;;21.09;100.00;96266.81;4975689;28;24805;-76
2023/08/22 01:17:56;;;;;;;6.32;5.35;;;;;;;21.08;100.00;96268.63;4976456;28;25007;-77
2023/08/22 01:20:24;;;;;;;7.00;4.75;;;;;;;21.10;100.00;96261.44;4975405;28;24457;-76
2023/08/22 01:22:52;;;;;;;8.52;4.97;;;;;;;21.19;100.00;96260.50;4975163;28;24528;-76
2023/08/22 01:25:19;;;;;;;8.30;4.88;;;;;;;21.17;100.00;96264.25;4975489;28;24437;-76
2023/08/22 01:27:55;;;;;;;15.13;5.23;;;;;;;21.21;100.00;96270.88;4972066;28;24801;-76
2023/08/22 01:30:27;;;;;;;10.43;5.53;;;;;;;21.28;100.00;96277.22;4955939;28;24406;-76
2023/08/22 01:32:56;;;;;;;6.07;5.00;;;;;;;21.24;100.00;96270.59;4960650;28;24440;-76
2023/08/22 01:35:25;;;;;;;6.63;4.90;;;;;;;21.26;100.00;96272.09;4975287;28;24445;-76
2023/08/22 01:37:54;;;;;;;4.95;4.40;;;;;;;21.02;100.00;96275.34;4974882;28;24441;-76
2023/08/22 01:40:24;;;;;;;6.03;4.72;;;;;;;20.89;100.00;96268.75;4975871;28;24453;-76
2023/08/22 01:42:51;;;;;;;11.57;5.10;;;;;;;20.93;100.00;96259.59;4976897;28;24426;-76
2023/08/22 01:45:17;;;;;;;7.18;5.30;;;;;;;20.93;100.00;96256.97;4976809;28;24464;-76
2023/08/22 01:47:44;;;;;;;8.40;5.50;;;;;;;20.79;100.00;96259.09;4975051;28;24448;-76
2023/08/22 01:50:11;;;;;;;8.55;5.60;;;;;;;20.66;100.00;96250.75;4975095;28;24425;-76
2023/08/22 01:52:38;;;;;;;6.28;5.57;;;;;;;20.59;100.00;96257.56;4974577;28;24448;-76
2023/08/22 01:55:07;;;;;;;6.87;5.30;;;;;;;20.61;100.00;96254.78;4981563;28;24457;-76
2023/08/22 01:57:33;;;;;;;8.30;5.70;;;;;;;20.54;100.00;96255.38;4981609;28;24445;-76
2023/08/22 02:00:00;;;;;;;7.38;5.25;;;;;;;20.50;100.00;96251.34;4974785;28;24458;-76
2023/08/22 02:02:26;;;;;;;6.88;4.88;;;;;;;20.64;100.00;96255.31;4958628;28;25021;-76
2023/08/22 02:04:53;;;;;;;7.65;5.47;;;;;;;20.62;100.00;96246.75;4974910;28;24440;-76
2023/08/22 02:07:20;;;;;;;4.70;4.30;;;;;;;20.48;100.00;96239.31;4974768;28;24430;-76
2023/08/22 02:09:47;;;;;;;5.72;4.38;;;;;;;20.40;100.00;96237.41;4974316;28;24496;-76
2023/08/22 02:12:15;;;;;;;6.20;5.35;;;;;;;20.40;100.00;96244.47;4974504;28;24518;-76
2023/08/22 02:14:41;;;;;;;7.38;5.85;;;;;;;20.36;100.00;96241.31;4974456;28;24434;-76
2023/08/22 02:17:08;;;;;;;6.53;4.85;;;;;;;20.38;100.00;96247.25;4974643;28;24445;-76
2023/08/22 02:19:34;;;;;;;6.47;5.45;;;;;;;20.39;100.00;96243.63;4974340;28;24888;-76
2023/08/22 02:22:01;;;;;;;5.70;5.20;;;;;;;20.33;100.00;96236.34;4974206;28;24445;-76
2023/08/22 02:24:27;;;;;;;5.75;4.35;;;;;;;20.29;100.00;96245.50;4974108;28;25023;-76
2023/08/22 02:26:54;;;;;;;5.75;4.88;;;;;;;20.29;100.00;96246.31;4974098;28;24448;-76
2023/08/22 02:29:22;;;;;;;7.35;5.28;;;;;;;20.28;100.00;96244.66;4974491;28;24798;-76
2023/08/22 02:31:48;;;;;;;7.40;4.88;;;;;;;20.25;100.00;96238.88;4974309;28;24429;-76
2023/08/22 02:34:15;;;;;;;6.75;5.05;;;;;;;20.27;100.00;96242.97;4974533;28;24416;-76
2023/08/22 02:36:41;;;;;;;6.07;4.90;;;;;;;20.33;100.00;96244.22;4974147;28;24525;-76
2023/08/22 02:39:08;;;;;;;6.65;5.28;;;;;;;20.26;100.00;96237.88;4974087;28;24420;-76
2023/08/22 02:41:34;;;;;;;6.40;5.00;;;;;;;20.27;100.00;96242.16;4973765;28;24508;-76
2023/08/22 02:44:01;;;;;;;7.50;5.17;;;;;;;20.34;100.00;96247.69;4973619;28;24460;-77
2023/08/22 02:46:29;;;;;;;7.43;5.28;;;;;;;20.26;100.00;96248.41;4974039;28;24442;-77
2023/08/22 02:48:55;;;;;;;5.93;4.90;;;;;;;20.39;100.00;96241.00;4973736;28;24440;-77
2023/08/22 02:51:22;;;;;;;7.50;5.40;;;;;;;20.42;100.00;96245.97;4973790;28;24809;-76
2023/08/22 02:53:48;;;;;;;6.10;4.67;;;;;;;20.38;100.00;96243.78;4973535;28;24444;-76
2023/08/22 02:56:15;;;;;;;6.43;4.70;;;;;;;20.36;100.00;96246.56;4973438;28;24448;-76
2023/08/22 02:58:42;;;;;;;6.53;4.60;;;;;;;20.31;100.00;96244.34;4973795;28;24434;-76
2023/08/22 03:01:08;;;;;;;5.30;4.78;;;;;;;20.35;100.00;96241.44;4974904;28;24457;-76
2023/08/22 03:03:36;;;;;;;6.63;4.83;;;;;;;20.28;100.00;96243.81;4974255;28;24452;-76
2023/08/22 03:06:03;;;;;;;5.90;5.07;;;;;;;20.09;100.00;96246.50;4973561;28;24496;-76
2023/08/22 03:08:29;;;;;;;6.07;4.93;;;;;;;20.04;100.00;96247.78;4973396;28;24442;-76
2023/08/22 03:11:00;;;;;;;7.07;4.95;;;;;;;19.99;100.00;96246.56;4972456;28;24457;-76
2023/08/22 03:13:28;;;;;;;8.73;4.60;;;;;;;19.98;100.00;96237.81;4973728;28;24429;-76
2023/08/22 03:15:55;;;;;;;8.32;4.60;;;;;;;19.92;100.00;96246.28;4973549;28;24429;-76
2023/08/22 03:18:21;;;;;;;5.28;4.40;;;;;;;19.87;100.00;96239.78;4973142;28;24444;-77
2023/08/22 03:20:49;;;;;;;7.20;4.57;;;;;;;19.78;100.00;96244.94;4973874;28;24476;-76
2023/08/22 03:23:16;;;;;;;5.45;4.65;;;;;;;19.82;100.00;96245.47;4973410;28;24440;-76
2023/08/22 03:25:43;;;;;;;7.10;5.13;;;;;;;19.84;100.00;96243.56;4973606;28;24445;-76
2023/08/22 03:28:10;;;;;;;6.50;4.88;;;;;;;19.87;100.00;96227.47;4972635;28;24500;-77
2023/08/22 03:30:36;;;;;;;5.50;4.95;;;;;;;19.92;100.00;96234.97;4973349;28;24766;-77
2023/08/22 03:33:03;;;;;;;8.15;5.20;;;;;;;19.97;100.00;96233.53;4972470;28;24444;-77
2023/08/22 03:35:29;;;;;;;5.65;5.00;;;;;;;20.06;100.00;96239.75;4973189;28;24981;-77
2023/08/22 03:37:57;;;;;;;8.93;4.80;;;;;;;20.08;100.00;96237.81;4972348;28;24425;-77
2023/08/22 03:40:24;;;;;;;6.35;4.88;;;;;;;19.94;100.00;96239.09;4972964;28;24933;-77
2023/08/22 03:42:50;;;;;;;6.63;5.18;;;;;;;20.06;100.00;96239.75;4972752;28;24428;-77
2023/08/22 03:45:17;;;;;;;6.40;4.43;;;;;;;20.10;100.00;96238.50;4972623;28;24452;-76
2023/08/22 03:47:43;;;;;;;4.18;3.78;;;;;;;19.94;100.00;96238.25;4972590;28;25061;-77
2023/08/22 03:50:10;;;;;;;7.22;3.53;;;;;;;19.80;100.00;96245.63;4972842;28;24440;-76
2023/08/22 03:52:36;;;;;;;10.88;3.80;;;;;;;19.76;100.00;96244.25;4972303;28;24418;-76
2023/08/22 03:55:05;;;;;;;8.20;4.30;;;;;;;19.79;100.00;96243.13;4972470;28;24801;-77
2023/08/22 03:57:32;;;;;;;9.30;4.83;;;;;;;19.73;100.00;96239.28;4972489;28;24446;-76
2023/08/22 03:59:58;;;;;;;7.13;5.80;;;;;;;19.56;100.00;96240.78;4972293;28;25005;-77
2023/08/22 04:02:25;;;;;;;7.10;5.75;;;;;;;19.45;100.00;96246.19;4972417;28;24460;-77
2023/08/22 04:04:51;;;;;;;5.60;5.03;;;;;;;19.51;100.00;96242.19;4972732;28;24441;-76
2023/08/22 04:07:18;;;;;;;6.13;5.35;;;;;;;19.67;100.00;96241.66;4972349;28;24450;-77
2023/08/22 04:09:44;;;;;;;5.10;4.60;;;;;;;19.67;100.00;96239.00;4972423;28;24449;-76
2023/08/22 04:12:12;;;;;;;6.03;4.80;;;;;;;19.67;100.00;96239.00;4972439;28;24428;-77
2023/08/22 04:14:38;;;;;;;5.10;4.45;;;;;;;19.75;100.00;96247.84;4972568;28;24472;-77
2023/08/22 04:17:06;;;;;;;5.72;4.78;;;;;;;19.76;100.00;96249.53;4972382;28;24450;-76
2023/08/22 04:19:32;;;;;;;7.03;4.70;;;;;;;19.52;100.00;96251.72;4972222;28;24430;-75
2023/08/22 04:21:59;;;;;;;6.30;4.50;;;;;;;19.43;100.00;96252.53;4971863;28;24985;-77
2023/08/22 04:24:25;;;;;;;5.40;4.00;;;;;;;19.42;100.00;96256.97;4972375;28;24777;-76
2023/08/22 04:26:52;;;;;;;4.15;3.75;;;;;;;19.38;100.00;96255.59;4972306;28;24425;-76
2023/08/22 04:29:20;;;;;;;4.55;4.15;;;;;;;19.31;100.00;96263.19;4972466;28;24425;-76
2023/08/22 04:31:47;;;;;;;6.00;5.13;;;;;;;19.34;100.00;96259.47;4971745;28;24437;-76
2023/08/22 04:34:13;;;;;;;5.27;4.67;;;;;;;19.38;100.00;96255.59;4971921;28;25072;-75
2023/08/22 04:36:40;;;;;;;6.53;4.93;;;;;;;19.38;100.00;96260.03;4971982;28;24435;-76
2023/08/22 04:39:06;;;;;;;9.65;5.22;;;;;;;19.42;100.00;96262.22;4971782;28;24444;-77
2023/08/22 04:41:33;;;;;;;6.15;4.25;;;;;;;19.41;100.00;96262.38;4971580;28;24464;-76
2023/08/22 04:43:59;;;;;;;9.85;4.50;;;;;;;19.31;100.00;96265.00;4971933;28;24790;-75
2023/08/22 04:46:27;;;;;;;5.13;4.43;;;;;;;19.24;100.00;96258.63;4971852;28;24452;-75
2023/08/22 04:48:54;;;;;;;8.95;4.40;;;;;;;19.14;100.00;96266.53;4969604;28;24441;-75
2023/08/22 04:51:20;;;;;;;4.87;4.30;;;;;;;18.98;100.00;96264.41;4971145;28;24464;-75
2023/08/22 04:53:47;;;;;;;4.63;4.13;;;;;;;18.95;100.00;96269.09;4970051;28;24442;-75
2023/08/22 04:56:13;;;;;;;6.40;3.55;;;;;;;18.99;100.00;96263.47;4964140;28;24438;-76
2023/08/22 04:58:40;;;;;;;6.37;3.27;;;;;;;19.08;100.00;96270.50;4973674;28;24892;-76
2023/08/22 05:01:06;;;;;;;3.40;3.10;;;;;;;19.13;100.00;96272.72;4971026;28;24461;-76
2023/08/22 05:03:34;;;;;;;3.33;3.03;;;;;;;19.21;100.00;96275.50;4982967;28;24484;-75
2023/08/22 05:06:00;;;;;;;3.58;2.85;;;;;;;19.31;100.00;96272.88;4969295;28;24444;-76
2023/08/22 05:08:27;;;;;;;3.00;2.70;;;;;;;19.44;100.00;96273.44;4968695;28;25864;-76
2023/08/22 05:10:53;;;;;;;3.28;2.80;;;;;;;19.54;100.00;96276.91;4980173;28;24425;-76
2023/08/22 05:13:20;;;;;;;3.45;3.15;;;;;;;19.61;100.00;96274.53;4971088;28;24992;-76
2023/08/22 05:15:46;;;;;;;4.20;3.53;;;;;;;19.64;100.00;96265.56;4971589;28;24442;-77
2023/08/22 05:18:13;;;;;;;4.95;3.17;;;;;;;19.69;100.00;96269.44;4970799;28;24434;-77
2023/08/22 05:20:41;;;;;;;3.55;3.25;;;;;;;19.75;100.00;96274.13;4971851;28;24462;-78
2023/08/22 05:23:08;;;;;;;4.07;3.13;;;;;;;19.86;100.00;96272.31;4971764;28;24992;-77
2023/08/22 05:25:34;;;;;;;3.55;2.95;;;;;;;19.98;100.00;96273.81;4971603;28;24433;-77
2023/08/22 05:28:00;;;;;;;5.45;3.35;;;;;;;20.10;100.00;96274.47;4972550;28;24421;-78
2023/08/22 05:30:27;;;;;;;6.10;4.20;;;;;;;20.17;100.00;96279.03;4990125;28;24433;-77
2023/08/22 05:32:53;;;;;;;15.07;4.10;;;;;;;20.33;100.00;96272.34;4982080;28;24975;-77
2023/08/22 05:35:20;;;;;;;7.50;4.88;;;;;;;20.41;100.00;96261.91;4971550;28;24445;-76
2023/08/22 05:37:48;;;;;;;9.15;4.93;;;;;;;20.57;100.00;96269.22;4955958;28;24453;-76
2023/08/22 05:40:14;;;;;;;6.63;4.95;;;;;;;20.62;100.00;96275.69;4952517;28;25140;-75
2023/08/22 05:42:41;;;;;;;6.00;5.05;;;;;;;20.50;100.00;96275.03;4971344;28;24424;-76
2023/08/22 05:45:08;;;;;;;7.28;5.20;;;;;;;20.45;100.00;96274.63;4971585;28;24506;-76
2023/08/22 05:47:35;;;;;;;7.10;4.78;;;;;;;20.42;100.00;96279.34;4971528;28;24789;-77
2023/08/22 05:50:02;;;;;;;5.18;4.22;;;;;;;20.51;100.00;96270.63;4971502;28;24425;-76
2023/08/22 05:52:28;;;;;;;8.88;4.32;;;;;;;20.59;100.00;96268.09;4969307;28;24977;-77
2023/08/22 05:54:56;;;;;;;7.97;4.85;;;;;;;20.83;100.00;96272.81;4985901;28;24512;-77
2023/08/22 05:57:23;;;;;;;6.22;4.55;;;;;;;21.00;100.00;96277.28;4978273;28;24837;-78
2023/08/22 05:59:50;;;;;;;5.85;4.13;;;;;;;21.18;100.00;96281.75;4976749;28;24433;-77
2023/08/22 06:02:16;;;;;;;4.68;4.25;;;;;;;21.20;100.00;96279.78;4977411;28;24457;-77
2023/08/22 06:04:44;;;;;;;4.68;4.03;;;;;;;21.20;100.00;96282.41;4977581;28;24437;-77
2023/08/22 06:07:10;;;;;;;6.10;4.20;;;;;;;21.23;100.00;96274.22;4979513;28;24449;-77
2023/08/22 06:09:37;;;;;;;5.45;4.45;;;;;;;21.37;100.00;96283.44;4977998;28;24449;-77
2023/08/22 06:12:06;;;;;;;9.45;4.55;;;;;;;21.40;100.00;96288.41;4974253;28;25007;-77
2023/08/22 06:14:33;;;;;;;7.93;4.60;;;;;;;21.33;100.00;96282.91;4975336;28;24433;-77
2023/08/22 06:16:59;;;;;;;5.73;4.60;;;;;;;21.30;100.00;96288.44;4978677;28;24445;-77
2023/08/22 06:19:26;;;;;;;9.18;4.60;;;;;;;21.45;100.00;96284.34;4974676;28;24444;-77
2023/08/22 06:21:52;;;;;;;8.07;4.28;;;;;;;21.61;100.00;96285.44;4979653;28;24463;-77
2023/08/22 06:24:19;;;;;;;4.87;4.30;;;;;;;21.65;100.00;96286.81;4978921;28;24793;-77
2023/08/22 06:26:47;;;;;;;6.20;4.45;;;;;;;21.68;100.00;96287.31;4982546;28;25023;-76
2023/08/22 06:29:15;;;;;;;5.28;4.20;;;;;;;21.75;100.00;96293.66;4974079;28;24528;-75
2023/08/22 06:31:41;;;;;;;4.67;4.03;;;;;;;21.97;100.00;96291.50;4973687;28;24473;-75
2023/08/22 06:34:08;;;;;;;7.50;4.70;;;;;;;21.95;100.00;96291.69;4973820;28;24993;-75
2023/08/22 06:36:34;;;;;;;5.78;4.85;;;;;;;22.09;100.00;96284.16;4973783;28;24440;-75
2023/08/22 06:39:03;;;;;;;7.85;4.40;;;;;;;22.46;100.00;96295.28;4973329;28;24440;-75
2023/08/22 06:41:30;;;;;;;6.05;4.68;;;;;;;22.48;100.00;96289.06;4973333;28;24917;-74
2023/08/22 06:43:56;;;;;;;22.23;4.63;;;;;;;22.46;100.00;96286.56;4973864;28;24553;-77
2023/08/22 06:46:27;;;;;;;7.03;4.47;;;;;;;22.48;100.00;96289.06;4975997;28;24448;-76
2023/08/22 06:48:53;;;;;;;5.65;3.90;;;;;;;22.68;100.00;96290.44;4973459;28;24802;-76
2023/08/22 06:51:20;;;;;;;5.43;3.93;;;;;;;23.09;100.00;96286.16;4973463;28;24794;-76
2023/08/22 06:53:47;;;;;;;4.28;3.80;;;;;;;23.33;100.00;96293.34;4973021;28;24433;-76
2023/08/22 06:56:14;;;;;;;5.82;4.05;;;;;;;23.33;100.00;96289.88;4973569;28;24473;-77
2023/08/22 06:58:40;;;;;;;6.63;4.30;;;;;;;23.52;100.00;96294.84;4973790;28;24446;-77
2023/08/22 07:01:07;;;;;;;6.07;4.10;;;;;;;23.42;100.00;96294.16;4973931;28;24450;-77
2023/08/22 07:03:35;;;;;;;10.07;4.75;;;;;;;23.38;100.00;96295.47;4974850;28;24425;-78
2023/08/22 07:06:02;;;;;;;6.47;4.38;;;;;;;23.39;100.00;96305.88;4973745;28;24429;-78
2023/08/22 07:08:28;;;;;;;7.68;4.38;;;;;;;23.40;100.00;96301.44;4975241;28;24473;-78
2023/08/22 07:11:00;;;;;;;5.38;4.20;;;;;;;23.59;100.00;96300.31;4974719;28;24468;-77
2023/08/22 07:13:26;;;;;;;5.70;4.20;;;;;;;23.79;100.00;96304.28;4975331;28;24433;-78
2023/08/22 07:15:53;;;;;;;6.57;4.07;;;;;;;24.09;100.00;96307.25;4975957;28;24444;-78
2023/08/22 07:18:19;;;;;;;8.93;3.83;;;;;;;24.51;100.00;96296.47;4975919;28;24429;-78
2023/08/22 07:20:51;;;;;;;6.68;4.22;;;;;;;24.63;100.00;96302.22;4975012;28;24441;-78
2023/08/22 07:23:18;;;;;;;7.90;3.92;;;;;;;24.61;100.00;96297.06;4970562;28;24540;-76
2023/08/22 07:25:48;;;;;;;7.10;4.28;;;;;;;24.93;100.00;96295.31;4972514;28;24437;-74
2023/08/22 07:28:14;;;;;;;9.80;4.70;;;;;;;25.43;100.00;96294.03;4964692;28;24989;-75
2023/08/22 07:30:41;;;;;;;9.40;4.85;;;;;;;25.44;100.00;96295.72;4973254;28;24441;-75
2023/08/22 07:33:08;;;;;;;7.07;5.60;;;;;;;25.38;100.00;96299.06;4973213;28;25152;-74
2023/08/22 07:35:35;;;;;;;10.93;5.47;;;;;;;25.17;100.00;96304.97;4972909;28;24442;-75
2023/08/22 07:38:03;;;;;;;6.22;4.88;;;;;;;25.47;100.00;96302.47;4972999;28;24441;-74
2023/08/22 07:40:30;;;;;;;5.45;4.53;;;;;;;25.99;100.00;96301.78;4973075;28;24413;-74
2023/08/22 07:42:58;;;;;;;7.07;5.03;;;;;;;26.43;100.00;96304.50;4973359;28;24457;-78
2023/08/22 07:45:25;;;;;;;4.38;3.70;;;;;;;26.80;100.00;96308.09;5030836;22;24488;-76
2023/08/22 07:47:52;;;;;;;5.65;3.88;;;;;;;27.11;100.00;96299.09;4991501;28;24440;-78
2023/08/22 07:50:18;;;;;;;5.28;3.67;;;;;;;27.45;100.00;96307.28;4989978;28;24831;-76
2023/08/22 07:52:45;;;;;;;4.95;3.70;;;;;;;27.65;100.00;96309.31;4991093;28;24432;-76
2023/08/22 07:55:13;;;;;;;4.15;3.60;;;;;;;27.85;100.00;96313.03;4979003;28;24453;-76
2023/08/22 07:57:39;;;;;;;4.60;3.60;;;;;;;28.05;100.00;96313.19;4975576;28;24429;-76
2023/08/22 08:00:09;;;;;;;3.97;3.00;;;;;;;28.27;100.00;96315.84;4988246;28;24479;-78
2023/08/22 08:02:36;;;;;;;6.13;3.33;;;;;;;28.37;100.00;96313.66;4991718;28;25128;-77
2023/08/22 08:05:02;;;;;;;6.93;3.10;;;;;;;28.53;100.00;96307.22;4991693;28;24432;-78
2023/08/22 08:07:29;;;;;;;4.00;2.80;;;;;;;28.76;100.00;96307.78;4991902;28;24981;-77
2023/08/22 08:09:55;;;;;;;4.50;2.80;;;;;;;28.92;100.00;96306.59;4992198;28;24420;-78
2023/08/22 08:12:23;;;;;;;5.68;2.90;;;;;;;28.98;100.00;96311.19;4991975;28;24413;-78
2023/08/22 08:14:50;;;;;;;4.47;2.60;;;;;;;29.14;100.00;96302.84;4992345;28;24432;-79
2023/08/22 08:17:18;;;;;;;3.75;2.42;;;;;;;29.55;100.00;96301.94;4993361;28;24417;-79
2023/08/22 08:19:45;;;;;;;4.97;2.80;;;;;;;29.60;100.00;96310.19;4982080;28;24871;-76
2023/08/22 08:22:12;;;;;;;3.30;2.47;;;;;;;29.42;100.00;96308.06;4991396;28;24473;-75
2023/08/22 08:24:38;;;;;;;6.72;2.33;;;;;;;29.33;100.00;96308.44;4991922;28;24428;-76
2023/08/22 08:27:05;;;;;;;9.63;2.97;;;;;;;29.66;100.00;96313.88;4982218;28;24972;-77
2023/08/22 08:29:33;;;;;;;4.20;2.92;;;;;;;29.48;100.00;96311.78;4991853;28;24487;-78
2023/08/22 08:31:59;;;;;;;4.13;2.70;;;;;;;28.84;100.00;96310.25;4985021;28;25013;-76
2023/08/22 08:34:26;;;;;;;6.65;3.05;;;;;;;28.88;100.00;96316.03;4990643;28;24441;-75
2023/08/22 08:36:53;;;;;;;8.27;3.00;;;;;;;29.23;100.00;96308.84;4991051;28;24448;-75
2023/08/22 08:39:20;;;;;;;7.40;3.20;;;;;;;29.54;100.00;96308.28;4980005;28;25023;-75
2023/08/22 08:41:52;;;;;;;6.63;3.10;;;;;;;29.90;100.00;96316.00;4986323;28;24449;-77
2023/08/22 08:44:19;;;;;;;4.78;3.10;;;;;;;29.62;80.61;96309.97;4988145;28;24800;-77
2023/08/22 08:46:48;;;;;;;5.63;3.08;;;;;;;29.45;78.09;96308.69;4991551;28;24792;-77
2023/08/22 08:49:14;;;;;;;4.87;3.27;;;;;;;29.45;76.38;96312.19;4991506;28;24417;-77
2023/08/22 08:51:42;;;;;;;5.15;3.17;;;;;;;29.09;78.45;96313.28;4978137;28;24524;-78
2023/08/22 08:54:11;;;;;;;3.45;2.90;;;;;;;29.46;77.27;96303.16;4972153;28;24426;-77
2023/08/22 08:56:37;;;;;;;4.80;3.22;;;;;;;29.75;78.17;96307.34;4972247;28;24484;-77
2023/08/22 08:59:04;;;;;;;6.85;3.05;;;;;;;29.88;74.86;96302.00;4973533;28;24437;-78
2023/08/22 09:01:31;;;;;;;5.88;3.20;;;;;;;30.36;79.39;96304.50;4991153;28;24480;-80
2023/08/22 09:03:58;;;;;;;6.13;3.00;;;;;;;30.70;73.49;96296.41;4986671;28;24821;-76
2023/08/22 09:06:25;;;;;;;6.82;3.30;;;;;;;30.35;71.84;96299.38;4982063;28;24474;-76
2023/08/22 09:09:07;;;;;;;7.95;3.03;;;;;;;29.91;74.52;96298.13;4975003;28;24439;-76
2023/08/22 09:11:33;;;;;;;6.55;3.20;;;;;;;30.24;86.37;96300.81;4971730;28;24484;-76
2023/08/22 09:14:00;;;;;;;3.97;3.20;;;;;;;30.77;80.27;96292.72;4971546;28;24437;-77
2023/08/22 09:16:27;;;;;;;6.13;3.00;;;;;;;30.70;74.97;96297.22;4985329;28;25015;-77
2023/08/22 09:19:00;;;;;;;5.20;3.25;;;;;;;30.50;73.36;96294.63;4990562;28;24440;-76
2023/08/22 09:21:26;;;;;;;5.67;3.03;;;;;;;30.17;73.59;96293.84;4989458;28;24444;-76
2023/08/22 09:23:53;;;;;;;5.47;3.00;;;;;;;30.40;73.23;96293.41;4990798;28;24417;-76
2023/08/22 09:26:22;;;;;;;8.50;3.67;;;;;;;30.57;71.42;96289.25;4990942;28;24429;-75
2023/08/22 09:28:49;;;;;;;6.10;3.38;;;;;;;31.18;77.96;96288.84;4991099;28;24429;-76
2023/08/22 09:31:22;;;;;;;5.03;3.22;;;;;;;31.34;73.76;96282.25;4990497;28;24478;-76
2023/08/22 09:33:50;;;;;;;4.97;3.38;;;;;;;30.91;68.59;96279.31;4991437;28;24844;-76
2023/08/22 09:36:20;;;;;;;7.95;3.70;;;;;;;30.31;69.25;96282.94;4984725;28;24793;-77
2023/08/22 09:38:52;;;;;;;5.93;3.13;;;;;;;30.41;71.68;96281.66;4977627;28;25251;-76
2023/08/22 09:41:22;;;;;;;4.70;3.33;;;;;;;30.34;72.53;96279.84;4986485;28;24438;-75
2023/08/22 09:43:52;;;;;;;5.97;3.45;;;;;;;29.92;71.63;96286.41;4975751;28;24856;-78
2023/08/22 09:46:20;;;;;;;5.70;2.90;;;;;;;29.88;71.33;96285.97;4975863;28;24416;-77
2023/08/22 09:48:49;;;;;;;6.27;3.13;;;;;;;30.71;82.65;96280.19;4975874;28;24852;-78
2023/08/22 09:51:21;;;;;;;3.55;2.92;;;;;;;31.01;75.77;96280.50;4975792;28;24975;-79
2023/08/22 09:53:51;;;;;;;4.80;3.20;;;;;;;31.34;79.13;96279.56;4986048;28;24509;-77
2023/08/22 09:56:19;;;;;;;7.88;3.20;;;;;;;31.59;74.91;96284.97;4982455;28;24519;-80
2023/08/22 09:58:46;;;;;;;3.70;2.63;;;;;;;31.79;76.17;96277.63;4980799;28;24476;-79
2023/08/22 10:01:14;;;;;;;6.20;3.00;;;;;;;31.97;68.88;96276.91;4989010;28;24456;-80
2023/08/22 10:03:40;;;;;;;8.18;2.90;;;;;;;32.24;64.97;96276.66;5000018;28;24444;-80
2023/08/22 10:06:13;;;;;;;5.20;3.08;;;;;;;31.90;63.59;96275.31;4996854;28;24425;-79
2023/08/22 10:08:43;;;;;;;4.57;3.05;;;;;;;31.79;65.49;96276.81;4982978;28;24433;-79
2023/08/22 10:11:12;;;;;;;3.30;2.70;;;;;;;31.49;64.20;96273.94;4993794;28;24483;-79
2023/08/22 10:13:40;;;;;;;4.50;3.00;;;;;;;31.74;64.69;96271.25;4991470;28;24438;-79
2023/08/22 10:16:07;;;;;;;6.93;3.20;;;;;;;31.51;67.21;96279.88;4977862;28;24418;-80
2023/08/22 10:18:33;;;;;;;6.05;3.05;;;;;;;31.40;69.91;96278.69;4978034;28;24513;-78
2023/08/22 10:21:00;;;;;;;4.13;3.00;;;;;;;31.03;69.31;96272.25;4984843;28;24431;-80
2023/08/22 10:23:56;;;;;;;8.32;3.10;;;;;;;30.68;68.84;96269.91;4993735;28;24465;-80
2023/08/22 10:26:26;;;;;;;3.90;2.80;;;;;;;30.19;72.02;96271.25;4977823;28;24418;-80
2023/08/22 10:29:14;;;;;;;3.80;2.90;;;;;;;30.42;73.42;96270.78;4980847;28;24437;-80
2023/08/22 10:32:13;;;;;;;6.27;2.97;;;;;;;30.93;74.70;96264.72;4982064;28;24469;-80
2023/08/22 10:35:28;;;;;;;5.30;2.97;;;;;;;31.25;69.25;96278.13;4991226;28;24816;-80
2023/08/22 10:37:55;;;;;;;4.20;2.72;;;;;;;31.74;62.96;96272.13;4991999;28;24438;-79
2023/08/22 10:40:28;;;;;;;5.35;2.70;;;;;;;32.09;64.26;96265.47;4979875;28;24561;-78
2023/08/22 10:43:06;;;;;;;3.88;2.78;;;;;;;31.71;64.54;96264.50;4989766;28;24540;-82
2023/08/22 10:45:57;;;;;;;4.67;2.80;;;;;;;31.08;63.87;96264.44;4994654;28;24794;-81
2023/08/22 10:48:23;;;;;;;6.72;2.70;;;;;;;31.23;67.00;96266.84;4991610;28;24451;-82
2023/08/22 10:50:52;;;;;;;5.90;3.08;;;;;;;31.23;63.85;96264.97;4998507;28;24423;-81
2023/08/22 10:53:26;;;;;;;3.50;2.83;;;;;;;30.98;68.71;96267.56;4996903;28;24491;-82
2023/08/22 10:55:56;;;;;;;5.15;2.45;;;;;;;31.22;68.89;96262.50;4997430;28;24458;-82
2023/08/22 10:58:36;;;;;;;6.63;3.03;;;;;;;31.07;63.18;96257.44;4990789;28;24437;-81
2023/08/22 11:01:03;;;;;;;3.72;2.72;;;;;;;30.71;66.44;96257.97;4998142;28;24515;-82
2023/08/22 11:03:31;;;;;;;4.25;2.42;;;;;;;30.73;64.78;96267.41;4997715;28;24437;-83
2023/08/22 11:05:58;;;;;;;6.05;2.58;;;;;;;30.39;64.99;96260.50;4978996;28;24429;-83
2023/08/22 11:08:24;;;;;;;3.63;3.00;;;;;;;30.00;66.40;96261.34;4979889;28;24421;-82
2023/08/22 11:10:52;;;;;;;3.70;2.97;;;;;;;29.96;67.75;96266.25;4995613;28;25006;-81
2023/08/22 11:13:20;;;;;;;3.65;2.70;;;;;;;30.35;67.48;96260.09;4997727;28;24445;-79
2023/08/22 11:15:50;;;;;;;6.07;2.97;;;;;;;30.90;73.78;96256.28;5000802;28;24444;-81
2023/08/22 11:18:17;;;;;;;3.90;2.63;;;;;;;30.89;68.27;96254.63;4994672;28;24461;-78
2023/08/22 11:20:52;;;;;;;6.10;2.97;;;;;;;30.78;69.52;96253.47;4976670;28;24442;-78
2023/08/22 11:23:19;;;;;;;7.80;3.90;;;;;;;30.82;73.73;96255.50;4976360;28;24539;-79
2023/08/22 11:25:45;;;;;;;3.80;2.78;;;;;;;30.85;69.37;96255.06;4980043;28;24436;-79
2023/08/22 11:28:13;;;;;;;4.53;2.78;;;;;;;30.74;69.45;96261.09;4994539;28;24441;-79
2023/08/22 11:30:41;;;;;;;8.47;2.83;;;;;;;30.53;67.89;96262.13;4996065;28;24424;-78